Time;durP1;ratioP1;P1;durP2;ratioP2;P2;SDS_P1;SDS_P2;PMS_P1;PMS_P2;Temp;Humidity;BMP_temperature;BMP_pressure;BME280_temperature;BME280_humidity;BME280_pressure;Samples;Min_cycle;Max_cycle;Signal;HPM_P1;HPM_P2
2023/05/17 00:00:49;;;;;;;;;;;7.60;99.90;;;;;;5024354;28;20001;-94
2023/05/17 00:03:15;;;;;;;;;;;7.40;99.90;;;;;;5026051;28;19936;-93
2023/05/17 00:05:41;;;;;;;;;;;7.30;99.90;;;;;;5024897;28;19944;-93
2023/05/17 00:08:06;;;;;;;;;;;7.10;99.90;;;;;;5025333;28;19925;-93
2023/05/17 00:10:32;;;;;;;;;;;7.00;99.90;;;;;;5026118;28;19931;-94
2023/05/17 00:12:58;;;;;;;;;;;7.00;99.90;;;;;;5007048;28;19921;-94
2023/05/17 00:15:26;;;;;;;;;;;6.90;99.90;;;;;;5040787;28;19936;-94
2023/05/17 00:17:52;;;;;;;;;;;6.80;99.90;;;;;;5012047;28;19925;-93
2023/05/17 00:20:17;;;;;;;;;;;6.70;99.90;;;;;;5019853;28;19932;-93
2023/05/17 00:22:44;;;;;;;;;;;6.60;99.90;;;;;;5022762;28;19925;-93
2023/05/17 00:25:10;;;;;;;;;;;6.60;99.90;;;;;;5030043;28;20339;-93
2023/05/17 00:27:36;;;;;;;;;;;6.50;99.90;;;;;;5028609;28;19925;-93
2023/05/17 00:30:01;;;;;;;;;;;6.40;99.90;;;;;;5022919;28;19925;-94
2023/05/17 00:32:27;;;;;;;;;;;6.40;99.90;;;;;;5029323;28;19926;-92
2023/05/17 00:34:55;;;;;;;;;;;6.40;99.90;;;;;;5000560;28;19941;-92
2023/05/17 00:37:21;;;;;;;;;;;6.40;99.90;;;;;;4997640;28;19935;-93
2023/05/17 00:39:46;;;;;;;;;;;6.40;99.90;;;;;;5011517;28;19925;-93
2023/05/17 00:42:12;;;;;;;;;;;6.40;99.90;;;;;;5019007;28;19925;-93
2023/05/17 00:44:37;;;;;;;;;;;6.20;99.90;;;;;;5012663;28;19928;-92
2023/05/17 00:47:03;;;;;;;;;;;6.40;99.90;;;;;;5025918;28;19945;-93
2023/05/17 00:49:29;;;;;;;;;;;6.50;99.90;;;;;;5013356;28;19925;-93
2023/05/17 00:51:55;;;;;;;;;;;6.50;99.90;;;;;;5014322;28;20387;-93
2023/05/17 00:54:20;;;;;;;;;;;6.50;99.90;;;;;;5019535;28;19936;-93
2023/05/17 00:56:47;;;;;;;;;;;6.60;99.90;;;;;;5001728;28;19963;-92
2023/05/17 00:59:12;;;;;;;;;;;6.80;99.90;;;;;;5012951;28;19925;-93
2023/05/17 01:01:41;;;;;;;;;;;6.80;99.90;;;;;;5017758;28;19986;-92
2023/05/17 01:04:10;;;;;;;;;;;6.90;99.90;;;;;;5032474;28;19922;-93
2023/05/17 01:06:36;;;;;;;;;;;7.30;99.90;;;;;;5010542;28;19926;-93
2023/05/17 01:09:02;;;;;;;;;;;7.00;99.90;;;;;;5032034;28;19952;-93
2023/05/17 01:11:41;;;;;;;;;;;7.00;99.90;;;;;;5041360;28;19983;-92
2023/05/17 01:14:13;;;;;;;;;;;7.10;99.90;;;;;;5037526;28;19977;-94
2023/05/17 01:16:41;;;;;;;;;;;7.10;99.90;;;;;;5034734;28;19931;-93
2023/05/17 01:19:16;;;;;;;;;;;7.20;99.90;;;;;;5028732;28;19925;-92
2023/05/17 01:22:00;;;;;;;;;;;7.20;99.90;;;;;;5027907;28;19944;-93
2023/05/17 01:24:32;;;;;;;;;;;7.30;99.90;;;;;;5029227;28;19936;-92
2023/05/17 01:26:58;;;;;;;;;;;7.30;99.90;;;;;;5027594;28;19925;-93
2023/05/17 01:29:25;;;;;;;;;;;7.30;99.90;;;;;;5045015;28;19988;-94
2023/05/17 01:31:52;;;;;;;;;;;7.20;99.90;;;;;;4998501;28;19925;-92
2023/05/17 01:34:24;;;;;;;;;;;7.20;99.90;;;;;;5027991;28;19936;-92
2023/05/17 01:36:50;;;;;;;;;;;7.10;99.90;;;;;;5028290;28;20012;-92
2023/05/17 01:39:16;;;;;;;;;;;7.10;99.90;;;;;;5009117;28;20414;-93
2023/05/17 01:41:42;;;;;;;;;;;7.10;99.90;;;;;;5028929;28;19993;-93
2023/05/17 01:44:23;;;;;;;;;;;7.00;99.90;;;;;;5010283;28;20015;-92
2023/05/17 01:46:51;;;;;;;;;;;6.90;99.90;;;;;;5011950;28;19952;-92
2023/05/17 01:49:21;;;;;;;;;;;6.80;99.90;;;;;;5011678;28;19948;-93
2023/05/17 01:51:50;;;;;;;;;;;6.80;99.90;;;;;;5027019;28;20404;-93
2023/05/17 01:54:21;;;;;;;;;;;6.70;99.90;;;;;;5028700;28;20353;-94
2023/05/17 01:56:50;;;;;;;;;;;6.70;99.90;;;;;;5025851;28;19932;-92
2023/05/17 01:59:20;;;;;;;;;;;6.60;99.90;;;;;;5026741;28;19980;-93
2023/05/17 02:01:47;;;;;;;;;;;6.50;99.90;;;;;;5027395;28;20006;-93
2023/05/17 02:04:13;;;;;;;;;;;6.40;99.90;;;;;;5026524;28;19921;-93
2023/05/17 02:06:38;;;;;;;;;;;6.30;99.90;;;;;;5008644;28;20200;-92
2023/05/17 02:09:04;;;;;;;;;;;6.30;99.90;;;;;;5039622;28;20380;-94
2023/05/17 02:11:31;;;;;;;;;;;6.10;99.90;;;;;;4999336;28;20295;-93
2023/05/17 02:13:57;;;;;;;;;;;6.10;99.90;;;;;;5022937;28;20263;-93
2023/05/17 02:16:23;;;;;;;;;;;6.00;99.90;;;;;;5004732;28;20384;-93
2023/05/17 02:18:49;;;;;;;;;;;5.90;99.90;;;;;;5002910;28;20442;-93
2023/05/17 02:21:17;;;;;;;;;;;5.80;99.90;;;;;;5007310;28;19926;-93
2023/05/17 02:23:42;;;;;;;;;;;5.70;99.90;;;;;;5007605;28;19925;-93
2023/05/17 02:26:08;;;;;;;;;;;5.70;99.90;;;;;;5007205;28;19933;-93
2023/05/17 02:28:34;;;;;;;;;;;5.70;99.90;;;;;;5024849;28;19925;-92
2023/05/17 02:30:59;;;;;;;;;;;5.70;99.90;;;;;;5010847;28;20404;-93
2023/05/17 02:33:25;;;;;;;;;;;5.70;99.90;;;;;;5001349;28;19929;-92
2023/05/17 02:35:51;;;;;;;;;;;5.70;99.90;;;;;;5034974;28;19929;-92
2023/05/17 02:38:17;;;;;;;;;;;5.70;99.90;;;;;;5007881;28;19925;-93
2023/05/17 02:40:42;;;;;;;;;;;5.80;99.90;;;;;;5008111;28;19932;-93
2023/05/17 02:43:08;;;;;;;;;;;5.80;99.90;;;;;;5016625;28;20040;-92
2023/05/17 02:45:33;;;;;;;;;;;5.80;99.90;;;;;;4988528;28;19926;-93
2023/05/17 02:47:59;;;;;;;;;;;5.90;99.90;;;;;;5003191;28;19944;-93
2023/05/17 02:50:25;;;;;;;;;;;5.90;99.90;;;;;;4988484;28;19926;-92
2023/05/17 02:52:50;;;;;;;;;;;6.00;99.90;;;;;;5006186;28;19925;-93
2023/05/17 02:55:16;;;;;;;;;;;6.00;99.90;;;;;;5004265;28;20348;-94
2023/05/17 02:57:42;;;;;;;;;;;6.10;99.90;;;;;;5000410;28;19929;-92
2023/05/17 03:00:08;;;;;;;;;;;6.10;99.90;;;;;;5018489;28;19926;-92
2023/05/17 03:02:34;;;;;;;;;;;6.10;99.90;;;;;;5030409;28;19925;-93
2023/05/17 03:04:59;;;;;;;;;;;6.10;99.90;;;;;;5022949;28;19991;-93
2023/05/17 03:07:25;;;;;;;;;;;6.20;99.90;;;;;;5015025;28;19926;-95
2023/05/17 03:09:50;;;;;;;;;;;6.20;99.90;;;;;;5017030;28;19925;-91
2023/05/17 03:12:16;;;;;;;;;;;6.30;99.90;;;;;;5008976;28;19930;-93
2023/05/17 03:14:42;;;;;;;;;;;6.30;99.90;;;;;;5021946;28;20012;-94
2023/05/17 03:17:07;;;;;;;;;;;6.40;99.90;;;;;;5018636;28;19926;-93
2023/05/17 03:19:33;;;;;;;;;;;6.40;99.90;;;;;;5013331;28;19925;-92
2023/05/17 03:21:58;;;;;;;;;;;6.40;99.90;;;;;;5000936;28;19926;-93
2023/05/17 03:24:24;;;;;;;;;;;6.40;99.90;;;;;;5022590;28;19929;-93
2023/05/17 03:26:50;;;;;;;;;;;3.00;99.90;;;;;;5003164;28;19925;-92
2023/05/17 03:29:15;;;;;;;;;;;6.50;99.90;;;;;;5005947;28;19936;-93
2023/05/17 03:31:41;;;;;;;;;;;6.50;99.90;;;;;;5004928;28;19945;-93
2023/05/17 03:34:07;;;;;;;;;;;6.60;99.90;;;;;;5014557;28;19926;-92
2023/05/17 03:36:38;;;;;;;;;;;6.60;99.90;;;;;;5020302;28;19925;-93
2023/05/17 03:39:03;;;;;;;;;;;6.60;99.90;;;;;;5015899;28;19926;-93
2023/05/17 03:41:30;;;;;;;;;;;6.60;99.90;;;;;;4989546;28;19937;-93
2023/05/17 03:43:56;;;;;;;;;;;6.60;99.90;;;;;;5020021;28;19948;-93
2023/05/17 03:46:22;;;;;;;;;;;6.60;99.90;;;;;;5022129;28;19926;-92
2023/05/17 03:48:48;;;;;;;;;;;6.60;99.90;;;;;;5021411;28;19930;-92
2023/05/17 03:51:14;;;;;;;;;;;6.70;99.90;;;;;;5028795;28;19921;-93
2023/05/17 03:53:42;;;;;;;;;;;6.70;99.90;;;;;;5033501;28;19963;-93
2023/05/17 03:56:08;;;;;;;;;;;6.80;99.90;;;;;;5033349;28;19921;-92
2023/05/17 03:58:33;;;;;;;;;;;6.90;99.90;;;;;;5024294;28;19952;-92
2023/05/17 04:00:59;;;;;;;;;;;6.90;99.90;;;;;;4969100;28;19926;-93
2023/05/17 04:03:25;;;;;;;;;;;7.00;99.90;;;;;;5005194;28;19933;-94
2023/05/17 04:05:50;;;;;;;;;;;7.00;99.90;;;;;;5021039;28;20279;-93
2023/05/17 04:08:16;;;;;;;;;;;7.00;99.90;;;;;;5021543;28;19925;-93
2023/05/17 04:10:42;;;;;;;;;;;7.00;99.90;;;;;;5021368;28;19926;-92
2023/05/17 04:13:08;;;;;;;;;;;6.90;99.90;;;;;;5012049;28;19925;-93
2023/05/17 04:15:34;;;;;;;;;;;6.90;99.90;;;;;;5001668;28;19926;-93
2023/05/17 04:18:00;;;;;;;;;;;6.90;99.90;;;;;;5019659;28;19932;-94
2023/05/17 04:20:25;;;;;;;;;;;6.80;99.90;;;;;;5018603;28;19965;-93
2023/05/17 04:22:51;;;;;;;;;;;6.90;99.90;;;;;;5003840;28;19980;-95
2023/05/17 04:25:17;;;;;;;;;;;7.00;99.90;;;;;;5001522;28;19926;-95
2023/05/17 04:27:44;;;;;;;;;;;7.00;99.90;;;;;;5003489;28;19926;-94
2023/05/17 04:30:10;;;;;;;;;;;7.00;99.90;;;;;;5020793;28;19949;-94
2023/05/17 04:32:36;;;;;;;;;;;7.10;99.90;;;;;;5021360;28;20293;-93
2023/05/17 04:35:02;;;;;;;;;;;7.20;99.90;;;;;;5018620;28;19932;-93
2023/05/17 04:37:28;;;;;;;;;;;7.20;99.90;;;;;;4991681;28;19985;-93
2023/05/17 04:39:53;;;;;;;;;;;7.40;99.90;;;;;;5004062;28;20255;-93
2023/05/17 04:42:19;;;;;;;;;;;7.40;99.90;;;;;;5005746;28;19925;-93
2023/05/17 04:44:44;;;;;;;;;;;7.50;99.90;;;;;;5016704;28;19930;-93
2023/05/17 04:47:10;;;;;;;;;;;7.50;99.90;;;;;;5035568;28;19972;-92
2023/05/17 04:49:36;;;;;;;;;;;7.60;99.90;;;;;;5004061;28;20024;-94
2023/05/17 04:52:02;;;;;;;;;;;7.50;99.90;;;;;;5020763;28;20036;-94
2023/05/17 04:54:27;;;;;;;;;;;7.60;99.90;;;;;;4999496;28;19961;-94
2023/05/17 04:56:53;;;;;;;;;;;7.70;99.90;;;;;;5017983;28;20368;-93
2023/05/17 04:59:18;;;;;;;;;;;7.70;99.90;;;;;;5014909;28;19925;-92
2023/05/17 05:01:44;;;;;;;;;;;7.80;99.90;;;;;;4983378;28;19933;-94
2023/05/17 05:04:09;;;;;;;;;;;7.80;99.90;;;;;;5010669;28;19933;-93
2023/05/17 05:06:35;;;;;;;;;;;7.90;99.90;;;;;;5025340;28;19936;-92
2023/05/17 05:09:01;;;;;;;;;;;7.90;99.90;;;;;;5030065;28;20003;-92
2023/05/17 05:11:26;;;;;;;;;;;7.90;99.90;;;;;;5027870;28;19922;-93
2023/05/17 05:13:52;;;;;;;;;;;7.90;99.90;;;;;;5017269;28;19925;-93
2023/05/17 05:16:17;;;;;;;;;;;8.00;99.90;;;;;;5032435;28;19922;-93
2023/05/17 05:18:43;;;;;;;;;;;8.00;99.90;;;;;;5036105;28;19925;-94
2023/05/17 05:21:09;;;;;;;;;;;8.00;99.90;;;;;;5009036;28;19921;-93
2023/05/17 05:23:34;;;;;;;;;;;8.00;99.90;;;;;;4997851;28;19952;-93
2023/05/17 05:26:00;;;;;;;;;;;8.00;99.90;;;;;;5026997;28;19948;-93
2023/05/17 05:28:25;;;;;;;;;;;8.10;99.90;;;;;;5027240;28;19925;-93
2023/05/17 05:30:55;;;;;;;;;;;8.10;99.90;;;;;;4993980;28;19925;-94
2023/05/17 05:33:21;;;;;;;;;;;8.10;99.90;;;;;;5027800;28;19925;-93
2023/05/17 05:35:47;;;;;;;;;;;8.20;99.90;;;;;;5009958;28;19936;-93
2023/05/17 05:38:12;;;;;;;;;;;8.30;99.90;;;;;;4995313;28;19960;-93
2023/05/17 05:40:38;;;;;;;;;;;8.40;99.90;;;;;;4990961;28;19926;-94
2023/05/17 05:43:04;;;;;;;;;;;8.40;99.90;;;;;;5012552;28;19929;-93
2023/05/17 05:45:29;;;;;;;;;;;8.40;99.90;;;;;;5009713;28;19979;-92
2023/05/17 05:47:55;;;;;;;;;;;8.50;99.90;;;;;;5017438;28;19925;-93
2023/05/17 05:50:21;;;;;;;;;;;8.60;99.90;;;;;;5010728;28;19965;-94
2023/05/17 05:52:46;;;;;;;;;;;8.70;99.90;;;;;;5005384;28;19965;-93
2023/05/17 05:55:12;;;;;;;;;;;8.90;99.90;;;;;;5052305;28;19940;-93
2023/05/17 05:57:37;;;;;;;;;;;8.90;99.90;;;;;;5018529;28;20480;-93
2023/05/17 06:00:03;;;;;;;;;;;8.90;99.90;;;;;;5026669;28;20407;-94
2023/05/17 06:02:29;;;;;;;;;;;7.50;99.90;;;;;;5004090;28;19925;-93
2023/05/17 06:04:55;;;;;;;;;;;9.00;99.90;;;;;;5006230;28;19968;-94
2023/05/17 06:07:20;;;;;;;;;;;9.00;99.90;;;;;;5019719;28;19933;-94
2023/05/17 06:09:46;;;;;;;;;;;9.00;99.90;;;;;;5017628;28;19964;-94
2023/05/17 06:12:12;;;;;;;;;;;9.00;99.90;;;;;;5021952;28;19956;-94
2023/05/17 06:14:37;;;;;;;;;;;9.00;99.90;;;;;;5020579;28;19926;-93
2023/05/17 06:17:03;;;;;;;;;;;9.10;99.90;;;;;;5042232;28;20387;-95
2023/05/17 06:19:29;;;;;;;;;;;9.00;99.90;;;;;;4989093;28;20265;-94
2023/05/17 06:21:54;;;;;;;;;;;9.10;99.90;;;;;;4993664;28;19933;-94
2023/05/17 06:24:20;;;;;;;;;;;8.40;99.90;;;;;;4988979;28;19925;-95
2023/05/17 06:26:48;;;;;;;;;;;9.30;99.90;;;;;;5009404;28;19965;-93
2023/05/17 06:29:14;;;;;;;;;;;9.40;99.90;;;;;;5027231;28;19921;-92
2023/05/17 06:31:40;;;;;;;;;;;10.40;99.90;;;;;;5034690;28;19935;-93
2023/05/17 06:34:05;;;;;;;;;;;9.40;99.90;;;;;;5038177;28;19932;-93
2023/05/17 06:36:33;;;;;;;;;;;9.40;99.90;;;;;;5023999;28;20464;-92
2023/05/17 06:38:59;;;;;;;;;;;9.30;99.90;;;;;;5025194;28;19931;-91
2023/05/17 06:41:25;;;;;;;;;;;9.30;99.90;;;;;;5026215;28;19985;-92
2023/05/17 06:43:50;;;;;;;;;;;9.20;99.90;;;;;;4991941;28;19936;-94
2023/05/17 06:46:16;;;;;;;;;;;9.20;99.90;;;;;;5026634;28;19983;-94
2023/05/17 06:48:42;;;;;;;;;;;9.20;99.90;;;;;;5015113;28;20419;-95
2023/05/17 06:51:13;;;;;;;;;;;9.20;99.90;;;;;;5014497;28;19983;-93
2023/05/17 06:53:39;;;;;;;;;;;9.20;99.90;;;;;;5008077;28;19928;-92
2023/05/17 06:56:05;;;;;;;;;;;9.20;99.90;;;;;;5006863;28;20376;-94
2023/05/17 06:58:31;;;;;;;;;;;9.20;99.90;;;;;;5001996;28;19925;-95
2023/05/17 07:00:57;;;;;;;;;;;9.30;99.90;;;;;;4986620;28;19925;-93
2023/05/17 07:03:22;;;;;;;;;;;9.40;99.90;;;;;;5008669;28;19928;-93
2023/05/17 07:05:48;;;;;;;;;;;9.40;99.90;;;;;;5019472;28;19932;-92
2023/05/17 07:08:14;;;;;;;;;;;9.40;99.90;;;;;;5006352;28;20021;-94
2023/05/17 07:10:40;;;;;;;;;;;9.50;99.90;;;;;;5011340;28;19926;-93
2023/05/17 07:13:05;;;;;;;;;;;9.50;99.90;;;;;;5005962;28;19932;-94
2023/05/17 07:15:31;;;;;;;;;;;9.60;99.90;;;;;;4992859;28;20415;-93
2023/05/17 07:17:58;;;;;;;;;;;9.60;99.90;;;;;;5006425;28;19992;-94
2023/05/17 07:20:23;;;;;;;;;;;9.50;99.90;;;;;;5007537;28;19951;-94
2023/05/17 07:22:49;;;;;;;;;;;9.50;99.90;;;;;;5020170;28;19925;-94
2023/05/17 07:25:16;;;;;;;;;;;9.50;99.90;;;;;;5027380;28;19929;-94
2023/05/17 07:27:42;;;;;;;;;;;9.50;99.90;;;;;;5023573;28;20024;-93
2023/05/17 07:30:08;;;;;;;;;;;9.50;99.90;;;;;;5026739;28;20018;-93
2023/05/17 07:32:33;;;;;;;;;;;9.50;99.90;;;;;;5024474;28;19948;-93
2023/05/17 07:35:01;;;;;;;;;;;9.50;99.90;;;;;;5019932;28;19948;-93
2023/05/17 07:37:26;;;;;;;;;;;10.20;99.90;;;;;;4992846;28;19948;-94
2023/05/17 07:39:52;;;;;;;;;;;9.60;99.90;;;;;;5007005;28;19929;-93
2023/05/17 07:42:17;;;;;;;;;;;9.60;99.90;;;;;;4992968;28;19932;-94
2023/05/17 07:44:43;;;;;;;;;;;9.70;99.90;;;;;;5006947;28;19925;-93
2023/05/17 07:47:09;;;;;;;;;;;9.80;99.90;;;;;;4999510;28;19983;-95
2023/05/17 07:49:36;;;;;;;;;;;10.10;99.90;;;;;;4992604;28;19940;-95
2023/05/17 07:52:02;;;;;;;;;;;10.00;99.90;;;;;;5020381;28;19921;-93
2023/05/17 07:54:28;;;;;;;;;;;10.10;99.90;;;;;;5020666;28;19964;-93
2023/05/17 07:56:54;;;;;;;;;;;10.80;99.90;;;;;;5000068;28;19921;-95
2023/05/17 07:59:20;;;;;;;;;;;10.60;99.90;;;;;;4989170;28;19956;-94
2023/05/17 08:01:46;;;;;;;;;;;10.30;99.90;;;;;;5006658;28;19925;-94
2023/05/17 08:04:13;;;;;;;;;;;10.60;99.90;;;;;;5023789;28;19925;-94
2023/05/17 08:06:39;;;;;;;;;;;10.40;99.90;;;;;;4991097;28;19932;-94
2023/05/17 08:09:05;;;;;;;;;;;10.40;99.90;;;;;;5020857;28;19929;-95
2023/05/17 08:11:33;;;;;;;;;;;10.30;99.90;;;;;;5008257;28;19935;-95
2023/05/17 08:13:59;;;;;;;;;;;10.20;99.90;;;;;;4989658;28;19984;-94
2023/05/17 08:16:25;;;;;;;;;;;10.30;99.90;;;;;;5008292;28;19929;-94
2023/05/17 08:18:50;;;;;;;;;;;10.00;99.90;;;;;;5008268;28;19999;-95
2023/05/17 08:21:16;;;;;;;;;;;10.30;99.90;;;;;;5033558;28;19956;-95
2023/05/17 08:23:42;;;;;;;;;;;10.70;99.90;;;;;;5010290;28;19925;-93
2023/05/17 08:26:08;;;;;;;;;;;10.40;99.90;;;;;;5025383;28;19925;-92
2023/05/17 08:28:33;;;;;;;;;;;10.60;99.90;;;;;;5023513;28;19968;-94
2023/05/17 08:30:59;;;;;;;;;;;10.70;99.90;;;;;;4998519;28;19925;-94
2023/05/17 08:33:26;;;;;;;;;;;10.70;99.90;;;;;;5007360;28;19940;-95
2023/05/17 08:35:53;;;;;;;;;;;12.30;99.90;;;;;;5003343;28;19925;-93
2023/05/17 08:38:20;;;;;;;;;;;10.60;99.90;;;;;;4986834;28;20536;-94
2023/05/17 08:40:55;;;;;;;;;;;10.60;99.90;;;;;;5007214;28;19992;-94
2023/05/17 08:43:21;;;;;;;;;;;10.70;99.90;;;;;;5010304;28;19929;-95
2023/05/17 08:45:48;;;;;;;;;;;10.70;99.90;;;;;;5026685;28;19971;-95
2023/05/17 08:48:16;;;;;;;;;;;9.10;99.90;;;;;;5009645;28;19932;-93
2023/05/17 08:50:43;;;;;;;;;;;11.00;99.90;;;;;;4992162;28;19926;-93
2023/05/17 08:53:09;;;;;;;;;;;11.00;99.90;;;;;;5023843;28;20063;-93
2023/05/17 08:55:35;;;;;;;;;;;11.20;99.90;;;;;;5013145;28;19944;-94
2023/05/17 08:58:04;;;;;;;;;;;11.50;99.90;;;;;;5045225;28;19925;-94
2023/05/17 09:00:32;;;;;;;;;;;11.70;99.90;;;;;;5027472;28;19929;-94
2023/05/17 09:02:59;;;;;;;;;;;11.70;99.90;;;;;;5012188;28;19935;-93
2023/05/17 09:05:25;;;;;;;;;;;11.60;99.90;;;;;;5009844;28;19925;-92
2023/05/17 09:07:52;;;;;;;;;;;10.00;99.90;;;;;;5033060;23;19985;-92
2023/05/17 09:10:21;;;;;;;;;;;11.60;99.90;;;;;;5000786;28;19982;-90
2023/05/17 09:12:49;;;;;;;;;;;11.70;99.90;;;;;;4980995;28;19926;-88
2023/05/17 09:15:22;;;;;;;;;;;11.90;99.90;;;;;;4965142;28;19926;-88
2023/05/17 09:17:59;;;;;;;;;;;11.70;99.90;;;;;;4977330;28;19925;-87
2023/05/17 09:20:35;;;;;;;;;;;11.80;99.90;;;;;;4990303;28;20042;-88
2023/05/17 09:23:07;;;;;;;;;;;11.60;99.90;;;;;;4978038;28;19933;-88
2023/05/17 09:25:41;;;;;;;;;;;11.90;99.90;;;;;;4985252;28;19952;-88
2023/05/17 09:28:07;;;;;;;;;;;11.40;99.90;;;;;;4977787;28;19926;-88
2023/05/17 09:30:41;;;;;;;;;;;10.10;99.90;;;;;;4990760;28;19926;-87
2023/05/17 09:33:22;;;;;;;;;;;11.30;99.90;;;;;;4996156;28;19941;-88
2023/05/17 09:35:55;;;;;;;;;;;12.10;99.90;;;;;;4987768;28;19926;-86
2023/05/17 09:38:24;;;;;;;;;;;11.30;99.90;;;;;;4975285;28;19926;-85
2023/05/17 09:40:50;;;;;;;;;;;11.60;99.90;;;;;;4977229;28;19973;-87
2023/05/17 09:43:16;;;;;;;;;;;11.70;99.90;;;;;;4976475;28;20028;-88
2023/05/17 09:45:41;;;;;;;;;;;11.90;99.90;;;;;;4948202;28;20004;-88
2023/05/17 09:48:14;;;;;;;;;;;11.80;99.90;;;;;;4955991;28;19975;-90
2023/05/17 09:50:55;;;;;;;;;;;12.50;98.40;;;;;;4973094;28;20447;-88
2023/05/17 09:53:28;;;;;;;;;;;12.10;99.70;;;;;;4979065;28;19929;-88
2023/05/17 09:56:21;;;;;;;;;;;12.50;99.90;;;;;;4976502;28;19926;-89
2023/05/17 09:58:57;;;;;;;;;;;12.00;99.60;;;;;;4964393;28;20385;-88
2023/05/17 10:01:30;;;;;;;;;;;10.50;99.90;;;;;;4955011;28;19937;-88
2023/05/17 10:04:19;;;;;;;;;;;12.50;99.40;;;;;;4981643;28;20024;-89
2023/05/17 10:06:48;;;;;;;;;;;12.20;99.90;;;;;;4969579;28;20033;-88
2023/05/17 10:09:36;;;;;;;;;;;;;;;;;;;;;
2023/05/17 10:18:58;;;;;;;;;;;12.90;97.50;;;;;;4921681;29;19926;-91
2023/05/17 10:24:50;;;;;;;;;;;;;;;;;;;;;
2023/05/17 10:28:06;;;;;;;;;;;14.00;94.40;;;;;;4877510;29;19927;-90
2023/05/17 10:30:32;;;;;;;;;;;13.30;94.90;;;;;;4962057;28;20335;-85
2023/05/17 10:33:07;;;;;;;;;;;12.80;94.90;;;;;;4968197;28;19933;-88
2023/05/17 10:35:36;;;;;;;;;;;12.80;96.80;;;;;;4954012;28;19926;-86
2023/05/17 10:38:02;;;;;;;;;;;13.00;94.70;;;;;;4952436;28;19930;-89
2023/05/17 10:40:39;;;;;;;;;;;13.70;98.20;;;;;;4976283;28;19942;-87
2023/05/17 10:43:26;;;;;;;;;;;;;;;;;;;;;
2023/05/17 10:46:02;;;;;;;;;;;13.00;94.80;;;;;;4953588;28;20382;-87
2023/05/17 10:48:34;;;;;;;;;;;12.80;95.20;;;;;;4967682;28;19926;-88
2023/05/17 10:51:09;;;;;;;;;;;13.30;96.60;;;;;;4965420;28;19926;-88
2023/05/17 10:53:55;;;;;;;;;;;11.40;94.20;;;;;;4965697;28;20031;-88
2023/05/17 10:56:23;;;;;;;;;;;12.90;95.30;;;;;;4951957;28;19990;-88
2023/05/17 10:59:08;;;;;;;;;;;13.40;96.50;;;;;;4971431;28;20347;-88
2023/05/17 11:01:53;;;;;;;;;;;12.30;95.10;;;;;;4952603;28;19949;-87
2023/05/17 11:04:49;;;;;;;;;;;;;;;;;;;;;
2023/05/17 11:07:24;;;;;;;;;;;13.00;98.00;;;;;;4964274;28;20097;-89
2023/05/17 11:09:54;;;;;;;;;;;13.10;98.40;;;;;;4961064;28;19937;-88
2023/05/17 11:12:35;;;;;;;;;;;12.90;98.40;;;;;;4957225;28;19926;-88
2023/05/17 11:15:24;;;;;;;;;;;14.20;97.60;;;;;;4971788;28;20025;-88
2023/05/17 11:18:06;;;;;;;;;;;14.00;98.00;;;;;;4970622;28;19933;-88
2023/05/17 11:20:41;;;;;;;;;;;12.40;95.80;;;;;;4957671;28;19973;-88
2023/05/17 11:23:14;;;;;;;;;;;13.50;96.80;;;;;;4973388;28;19926;-90
2023/05/17 11:25:52;;;;;;;;;;;14.50;96.50;;;;;;4961525;28;19992;-89
2023/05/17 11:28:22;;;;;;;;;;;14.40;97.00;;;;;;4953721;28;20259;-90
2023/05/17 11:31:01;;;;;;;;;;;13.20;96.20;;;;;;4952795;28;19933;-89
2023/05/17 11:33:50;;;;;;;;;;;;;;;;;;;;;
2023/05/17 11:36:24;;;;;;;;;;;13.30;96.20;;;;;;4976352;28;19930;-89
2023/05/17 11:42:02;;;;;;;;;;;13.00;96.70;;;;;;4952158;28;19938;-90
2023/05/17 11:44:31;;;;;;;;;;;13.10;96.60;;;;;;4944851;28;20363;-89
2023/05/17 11:47:20;;;;;;;;;;;13.20;94.00;;;;;;4969680;28;19933;-89
2023/05/17 11:49:50;;;;;;;;;;;12.80;92.60;;;;;;4949961;28;20748;-89
2023/05/17 11:52:35;;;;;;;;;;;12.90;94.80;;;;;;4990471;28;19936;-90
2023/05/17 11:55:14;;;;;;;;;;;11.70;95.20;;;;;;4975155;28;19926;-89
2023/05/17 11:57:43;;;;;;;;;;;12.60;92.50;;;;;;4957858;28;19930;-89
2023/05/17 12:00:12;;;;;;;;;;;13.30;98.00;;;;;;4961655;28;19926;-89
2023/05/17 12:02:48;;;;;;;;;;;11.50;94.10;;;;;;4951319;28;19926;-88
2023/05/17 12:05:23;;;;;;;;;;;13.70;93.30;;;;;;4941232;28;19973;-90
2023/05/17 12:07:57;;;;;;;;;;;13.10;92.70;;;;;;4956573;28;20385;-89
2023/05/17 12:10:25;;;;;;;;;;;16.30;93.80;;;;;;4962403;28;19926;-88
2023/05/17 12:12:56;;;;;;;;;;;12.40;94.50;;;;;;4978053;28;20412;-91
2023/05/17 12:15:45;;;;;;;;;;;11.90;92.70;;;;;;4960016;28;19956;-91
2023/05/17 12:18:16;;;;;;;;;;;13.70;92.70;;;;;;4967213;28;19925;-87
2023/05/17 12:20:51;;;;;;;;;;;12.80;95.70;;;;;;4983874;28;19926;-87
2023/05/17 12:23:26;;;;;;;;;;;12.90;92.20;;;;;;4997101;28;19926;-87
2023/05/17 12:26:03;;;;;;;;;;;13.20;93.40;;;;;;4977897;28;19992;-87
2023/05/17 12:28:41;;;;;;;;;;;;;;;;;;;;;
2023/05/17 12:31:26;;;;;;;;;;;11.40;90.50;;;;;;4989993;28;19948;-92
2023/05/17 12:33:51;;;;;;;;;;;11.80;91.00;;;;;;4962122;28;19926;-87
2023/05/17 12:36:17;;;;;;;;;;;13.20;92.70;;;;;;4962453;28;19955;-86
2023/05/17 12:38:45;;;;;;;;;;;13.00;92.00;;;;;;4957424;28;19925;-90
2023/05/17 12:41:13;;;;;;;;;;;13.10;93.80;;;;;;4978174;28;19926;-86
2023/05/17 12:43:49;;;;;;;;;;;13.70;90.90;;;;;;4974972;28;20258;-90
2023/05/17 12:49:28;;;;;;;;;;;13.80;90.00;;;;;;4945408;28;19926;-89
2023/05/17 12:51:56;;;;;;;;;;;13.90;91.20;;;;;;4957109;28;19933;-88
2023/05/17 12:54:29;;;;;;;;;;;13.90;94.00;;;;;;4967913;28;19945;-87
2023/05/17 12:56:57;;;;;;;;;;;16.50;95.20;;;;;;4972404;28;20370;-88
2023/05/17 12:59:27;;;;;;;;;;;13.90;95.20;;;;;;4962418;28;19930;-88
2023/05/17 13:01:56;;;;;;;;;;;14.10;92.70;;;;;;4977366;28;20020;-87
2023/05/17 13:04:42;;;;;;;;;;;14.40;87.20;;;;;;4952054;28;20374;-87
2023/05/17 13:07:10;;;;;;;;;;;14.50;91.50;;;;;;4970758;28;19941;-89
2023/05/17 13:09:46;;;;;;;;;;;16.70;91.80;;;;;;4985379;28;19941;-89
2023/05/17 13:12:39;;;;;;;;;;;14.60;90.00;;;;;;5001932;28;19914;-92
2023/05/17 13:15:27;;;;;;;;;;;14.00;86.70;;;;;;4999737;28;19969;-90
2023/05/17 13:17:53;;;;;;;;;;;14.70;88.80;;;;;;4999057;28;19941;-88
2023/05/17 13:20:24;;;;;;;;;;;14.00;94.90;;;;;;4977000;28;19973;-90
2023/05/17 13:23:01;;;;;;;;;;;14.30;92.30;;;;;;4975665;28;19957;-88
2023/05/17 13:26:01;;;;;;;;;;;14.20;92.40;;;;;;4971129;28;19997;-89
2023/05/17 13:28:32;;;;;;;;;;;12.50;90.10;;;;;;4975770;28;19926;-90
2023/05/17 13:31:07;;;;;;;;;;;13.90;87.30;;;;;;4957193;28;19926;-91
2023/05/17 13:33:58;;;;;;;;;;;15.30;91.30;;;;;;4957326;28;20378;-90
2023/05/17 13:36:24;;;;;;;;;;;14.70;86.30;;;;;;4955557;28;19930;-87
2023/05/17 13:38:50;;;;;;;;;;;14.60;90.60;;;;;;4977346;28;19932;-90
2023/05/17 13:41:16;;;;;;;;;;;14.60;89.70;;;;;;4961375;28;19930;-89
2023/05/17 13:43:45;;;;;;;;;;;14.70;91.20;;;;;;4977034;28;19973;-87
2023/05/17 13:46:13;;;;;;;;;;;14.40;88.40;;;;;;4977031;28;20286;-90
2023/05/17 13:52:22;;;;;;;;;;;;;;;;;;;;;
2023/05/17 13:55:16;;;;;;;;;;;14.40;90.80;;;;;;4975048;28;19984;-91
2023/05/17 13:58:15;;;;;;;;;;;;;;;;;;;;;
2023/05/17 14:01:10;;;;;;;;;;;13.90;91.50;;;;;;4963793;28;19932;-92
2023/05/17 14:03:36;;;;;;;;;;;13.80;89.70;;;;;;4959988;28;19930;-88
2023/05/17 14:06:02;;;;;;;;;;;14.40;91.10;;;;;;4976522;28;20004;-89
2023/05/17 14:08:33;;;;;;;;;;;14.20;91.00;;;;;;4972353;28;19981;-90
2023/05/17 14:11:05;;;;;;;;;;;13.80;91.50;;;;;;4965299;28;19938;-88
2023/05/17 14:13:31;;;;;;;;;;;15.50;91.70;;;;;;4952163;28;19930;-89
2023/05/17 14:15:59;;;;;;;;;;;13.70;94.70;;;;;;4951137;28;20453;-89
2023/05/17 14:18:38;;;;;;;;;;;13.90;92.50;;;;;;4967917;28;20036;-89
2023/05/17 14:21:07;;;;;;;;;;;15.50;90.80;;;;;;4966500;28;19933;-91
2023/05/17 14:23:37;;;;;;;;;;;13.80;93.50;;;;;;4974657;28;20363;-90
2023/05/17 14:26:18;;;;;;;;;;;;;;;;;;;;;
2023/05/17 14:28:52;;;;;;;;;;;11.00;93.50;;;;;;4969459;28;19926;-89
2023/05/17 14:31:28;;;;;;;;;;;13.80;93.30;;;;;;4973676;28;19926;-90
2023/05/17 14:34:09;;;;;;;;;;;13.50;92.40;;;;;;4967023;28;19981;-88
2023/05/17 14:36:36;;;;;;;;;;;14.80;91.50;;;;;;4973757;28;20342;-88
2023/05/17 14:39:03;;;;;;;;;;;13.40;95.30;;;;;;4971689;28;19932;-89
2023/05/17 14:41:31;;;;;;;;;;;13.60;92.50;;;;;;4953947;29;20383;-88
2023/05/17 14:44:02;;;;;;;;;;;13.20;93.90;;;;;;4956634;28;20008;-88
2023/05/17 14:46:30;;;;;;;;;;;13.10;97.60;;;;;;4956785;28;19926;-88
2023/05/17 14:48:58;;;;;;;;;;;13.00;96.70;;;;;;4950838;28;20592;-88
2023/05/17 14:51:27;;;;;;;;;;;11.40;93.90;;;;;;4972582;28;19934;-88
2023/05/17 14:53:55;;;;;;;;;;;13.00;94.90;;;;;;4960851;28;19926;-89
2023/05/17 14:56:21;;;;;;;;;;;13.00;95.00;;;;;;4941515;28;19926;-87
2023/05/17 14:58:49;;;;;;;;;;;12.10;93.20;;;;;;4971066;28;19926;-88
2023/05/17 15:01:16;;;;;;;;;;;13.20;94.20;;;;;;4972986;28;19926;-88
2023/05/17 15:03:42;;;;;;;;;;;13.10;93.50;;;;;;4972530;28;20342;-88
2023/05/17 15:06:10;;;;;;;;;;;12.70;93.40;;;;;;4956152;28;19930;-88